Terminal Aerodrome Forecast
Issued by NWS

Home | Current Version | Previous Version | Text Only | Print | Product List | Glossary Off
Versions: 1 2 3 4 5 6 7 8 9 10 11 12 13 14 15

521
FTUS42 KMHX 172332
TAFOAJ
TAF
KOAJ 172332Z 1800/1824 03005KT P6SM BKN040 OVC060
     FM180200 03005KT P6SM SCT120
     FM180900 01005KT P6SM BKN003
     FM181000 01005KT P6SM BKN010
     FM181800 01010KT P6SM SCT035
     FM182300 36010KT P6SM SCT250
      AMD LTD TO CLD VIS AND WIND=

USA.gov is the U.S. government's official web portal to all federal, state and local government web resources and services.